CSAV Loncomilla — VRFB3 — position and weather

sailwx.info

Track history (hours):
 
Tides and Currents Weather Stations Pressure Air Temp Water Temp Dewpoint Dewpoint Depression Visibility Wind Speed Wind Dir Waves Ship Positions

CSAV Loncomilla

Last reported at 2017-Sep-17 07:06 UTC. Time now 2017-Sep-26 03:45 UTC.
Position S 37°29' E 176°16'.
Warning: this ship's position is 8 days out of date.

Length 261 m; draft 8.8 m.

Type: Ship (hazmat cat A). MMSI: 477207400.

Date/timePositionNaut miles runAvg speedWind from/ knotsBaromVisibWave heightAir tempDewpointWater temp
2017-Sep-17 07:06S 37°29' E 176°16'114.2
2017-Sep-17 07:00S 37°30' E 176°16'713.8
2017-Sep-17 06:30S 37°36' E 176°12'4 7.1
2017-Sep-17 06:00S 37°40' E 176°11'0 0.5
2017-Sep-17 05:28S 37°40' E 176°11'0 0.0
2017-Sep-17 04:58S 37°40' E 176°11'0 0.0
2017-Sep-17 04:28S 37°40' E 176°11'0 0.0
2017-Sep-17 03:58S 37°40' E 176°11'0 0.0
2017-Sep-17 03:25S 37°40' E 176°11'0 0.0
2017-Sep-17 02:58S 37°40' E 176°11'0 0.0
2017-Sep-17 02:28S 37°40' E 176°11'0 0.0
2017-Sep-17 01:58S 37°40' E 176°11'0 0.0
2017-Sep-17 01:28S 37°40' E 176°11'0 0.0
2017-Sep-17 00:58S 37°40' E 176°11'0 0.0
2017-Sep-17 00:28S 37°40' E 176°11'0 0.0
2017-Sep-16 23:58S 37°40' E 176°11'0 0.0
2017-Sep-16 23:28S 37°40' E 176°11'0 0.0
2017-Sep-16 22:58S 37°40' E 176°11'0 0.0
2017-Sep-16 22:28S 37°40' E 176°11'0 0.0
2017-Sep-16 21:58S 37°40' E 176°11'0 0.0
2017-Sep-16 21:28S 37°40' E 176°11'0 0.0
2017-Sep-16 20:58S 37°40' E 176°11'0 0.0
2017-Sep-16 20:28S 37°40' E 176°11'0 0.0
2017-Sep-16 19:55S 37°40' E 176°11'0 0.0
2017-Sep-16 19:28S 37°40' E 176°11'0 0.0
2017-Sep-16 18:58S 37°40' E 176°11'0 0.0
2017-Sep-16 18:28S 37°40' E 176°11'0 0.0
2017-Sep-16 17:58S 37°40' E 176°11'0 0.0
2017-Sep-16 17:28S 37°40' E 176°11'0 0.0
2017-Sep-16 16:58S 37°40' E 176°11'0 0.0
2017-Sep-16 16:28S 37°40' E 176°11'0 0.0
2017-Sep-16 15:58S 37°40' E 176°11'0 0.0
2017-Sep-16 15:28S 37°40' E 176°11'0 0.0
2017-Sep-16 14:58S 37°40' E 176°11'0 0.0
2017-Sep-16 14:28S 37°40' E 176°11'0 0.0
2017-Sep-16 13:58S 37°40' E 176°11'0 0.0
2017-Sep-16 13:28S 37°40' E 176°11'0 0.0
2017-Sep-16 12:58S 37°40' E 176°11'0 0.0
2017-Sep-16 12:30S 37°40' E 176°11'2 4.7
2017-Sep-16 12:00S 37°37' E 176°10'510.7
2017-Sep-16 11:30S 37°33' E 176°13'5 9.1
2017-Sep-16 11:01S 37°28' E 176°10'8116.1
2017-Sep-16 06:00S 36°11' E 175°43'916.6
2017-Sep-16 05:26S 36°03' E 175°36'1216.4
2017-Sep-16 04:41S 35°53' E 175°27'316.4
2017-Sep-16 04:30S 35°50' E 175°25'  
2017-Sep-13 06:10S 34°01' E 151°53'276 6.2
2017-Sep-11 09:26S 38°08' E 149°20'917.4
2017-Sep-11 08:53S 38°14' E 149°11'717.5
2017-Sep-11 08:30S 38°18' E 149°04'917.7
2017-Sep-11 08:00S 38°23' E 148°55'917.8
2017-Sep-11 07:30S 38°29' E 148°46'917.9
2017-Sep-11 07:00S 38°35' E 148°37'17612.2
2017-Sep-10 16:35S 38°07' E 144°55'117.7
2017-Sep-10 16:30S 38°06' E 144°55'917.4
2017-Sep-10 15:59S 37°57' E 144°56'611.9
2017-Sep-10 15:30S 37°51' E 144°54'2 2.8
2017-Sep-10 14:42S 37°49' E 144°55'0 0.1
2017-Sep-10 13:57S 37°49' E 144°55'0 0.1
2017-Sep-10 13:21S 37°49' E 144°55'0 0.0
2017-Sep-10 12:48S 37°49' E 144°55'0 0.0
2017-Sep-10 12:12S 37°49' E 144°55'0 0.0
2017-Sep-10 11:54S 37°49' E 144°55'0 0.0
2017-Sep-10 10:09S 37°49' E 144°55'0 0.0
2017-Sep-10 10:00S 37°49' E 144°55'0 0.0
2017-Sep-10 08:48S 37°49' E 144°55'0 0.0
2017-Sep-10 07:30S 37°49' E 144°55'0 0.0
2017-Sep-10 06:51S 37°49' E 144°55'0 0.0
2017-Sep-10 06:24S 37°49' E 144°55'0 0.0
2017-Sep-10 05:57S 37°49' E 144°55'0 0.0
2017-Sep-10 04:51S 37°49' E 144°55'0 0.0
2017-Sep-10 04:03S 37°49' E 144°55'0 0.0
2017-Sep-10 03:42S 37°49' E 144°55'0 0.0
2017-Sep-10 03:24S 37°49' E 144°55'0 0.0
2017-Sep-10 01:57S 37°49' E 144°55'0 0.0
2017-Sep-09 23:45S 37°49' E 144°55'0 0.0
2017-Sep-09 23:21S 37°49' E 144°55'0 0.0
2017-Sep-09 22:51S 37°49' E 144°55'0 0.0
2017-Sep-09 22:30S 37°49' E 144°55'0 0.0
2017-Sep-09 22:00S 37°49' E 144°55'0 0.0
2017-Sep-09 18:57S 37°49' E 144°55'0 0.0
2017-Sep-09 18:30S 37°49' E 144°55'0 0.0
2017-Sep-09 17:57S 37°49' E 144°55'0 0.0
2017-Sep-09 17:26S 37°49' E 144°55'1 1.3
2017-Sep-09 17:00S 37°49' E 144°55'3 5.5
2017-Sep-09 16:25S 37°52' E 144°56'511.4
2017-Sep-09 16:00S 37°57' E 144°55'4 8.2
2017-Sep-09 15:30S 38°01' E 144°55'917.1
2017-Sep-09 14:57S 38°11' E 144°55'  
Track history (hours):
 
Tides and Currents Weather Stations Pressure Air Temp Water Temp Dewpoint Dewpoint Depression Visibility Wind Speed Wind Dir Waves Ship Positions

CSAV Loncomilla

Last reported at 2017-Sep-17 07:06 UTC. Time now 2017-Sep-26 03:45 UTC.
Position S 37°29' E 176°16'.
Warning: this ship's position is 8 days out of date.

Length 261 m; draft 8.8 m.

Type: Ship (hazmat cat A). MMSI: 477207400.

Date/timePositionNaut miles runAvg speedWind from/ knotsBaromVisibWave heightAir tempDewpointWater temp
2017-Sep-17 07:06S 37°29' E 176°16'114.2
2017-Sep-17 07:00S 37°30' E 176°16'713.8
2017-Sep-17 06:30S 37°36' E 176°12'4 7.1
2017-Sep-17 06:00S 37°40' E 176°11'0 0.5
2017-Sep-17 05:28S 37°40' E 176°11'0 0.0
2017-Sep-17 04:58S 37°40' E 176°11'0 0.0
2017-Sep-17 04:28S 37°40' E 176°11'0 0.0
2017-Sep-17 03:58S 37°40' E 176°11'0 0.0
2017-Sep-17 03:25S 37°40' E 176°11'0 0.0
2017-Sep-17 02:58S 37°40' E 176°11'0 0.0
2017-Sep-17 02:28S 37°40' E 176°11'0 0.0
2017-Sep-17 01:58S 37°40' E 176°11'0 0.0
2017-Sep-17 01:28S 37°40' E 176°11'0 0.0
2017-Sep-17 00:58S 37°40' E 176°11'0 0.0
2017-Sep-17 00:28S 37°40' E 176°11'0 0.0
2017-Sep-16 23:58S 37°40' E 176°11'0 0.0
2017-Sep-16 23:28S 37°40' E 176°11'0 0.0
2017-Sep-16 22:58S 37°40' E 176°11'0 0.0
2017-Sep-16 22:28S 37°40' E 176°11'0 0.0
2017-Sep-16 21:58S 37°40' E 176°11'0 0.0
2017-Sep-16 21:28S 37°40' E 176°11'0 0.0
2017-Sep-16 20:58S 37°40' E 176°11'0 0.0
2017-Sep-16 20:28S 37°40' E 176°11'0 0.0
2017-Sep-16 19:55S 37°40' E 176°11'0 0.0
2017-Sep-16 19:28S 37°40' E 176°11'0 0.0
2017-Sep-16 18:58S 37°40' E 176°11'0 0.0
2017-Sep-16 18:28S 37°40' E 176°11'0 0.0
2017-Sep-16 17:58S 37°40' E 176°11'0 0.0
2017-Sep-16 17:28S 37°40' E 176°11'0 0.0
2017-Sep-16 16:58S 37°40' E 176°11'0 0.0
2017-Sep-16 16:28S 37°40' E 176°11'0 0.0
2017-Sep-16 15:58S 37°40' E 176°11'0 0.0
2017-Sep-16 15:28S 37°40' E 176°11'0 0.0
2017-Sep-16 14:58S 37°40' E 176°11'0 0.0
2017-Sep-16 14:28S 37°40' E 176°11'0 0.0
2017-Sep-16 13:58S 37°40' E 176°11'0 0.0
2017-Sep-16 13:28S 37°40' E 176°11'0 0.0
2017-Sep-16 12:58S 37°40' E 176°11'0 0.0
2017-Sep-16 12:30S 37°40' E 176°11'2 4.7
2017-Sep-16 12:00S 37°37' E 176°10'510.7
2017-Sep-16 11:30S 37°33' E 176°13'5 9.1
2017-Sep-16 11:01S 37°28' E 176°10'8116.1
2017-Sep-16 06:00S 36°11' E 175°43'916.6
2017-Sep-16 05:26S 36°03' E 175°36'1216.4
2017-Sep-16 04:41S 35°53' E 175°27'316.4
2017-Sep-16 04:30S 35°50' E 175°25'  
2017-Sep-13 06:10S 34°01' E 151°53'276 6.2
2017-Sep-11 09:26S 38°08' E 149°20'917.4
2017-Sep-11 08:53S 38°14' E 149°11'717.5
2017-Sep-11 08:30S 38°18' E 149°04'917.7
2017-Sep-11 08:00S 38°23' E 148°55'917.8
2017-Sep-11 07:30S 38°29' E 148°46'917.9
2017-Sep-11 07:00S 38°35' E 148°37'17612.2
2017-Sep-10 16:35S 38°07' E 144°55'117.7
2017-Sep-10 16:30S 38°06' E 144°55'917.4
2017-Sep-10 15:59S 37°57' E 144°56'611.9
2017-Sep-10 15:30S 37°51' E 144°54'2 2.8
2017-Sep-10 14:42S 37°49' E 144°55'0 0.1
2017-Sep-10 13:57S 37°49' E 144°55'0 0.1
2017-Sep-10 13:21S 37°49' E 144°55'0 0.0
2017-Sep-10 12:48S 37°49' E 144°55'0 0.0
2017-Sep-10 12:12S 37°49' E 144°55'0 0.0
2017-Sep-10 11:54S 37°49' E 144°55'0 0.0
2017-Sep-10 10:09S 37°49' E 144°55'0 0.0
2017-Sep-10 10:00S 37°49' E 144°55'0 0.0
2017-Sep-10 08:48S 37°49' E 144°55'0 0.0
2017-Sep-10 07:30S 37°49' E 144°55'0 0.0
2017-Sep-10 06:51S 37°49' E 144°55'0 0.0
2017-Sep-10 06:24S 37°49' E 144°55'0 0.0
2017-Sep-10 05:57S 37°49' E 144°55'0 0.0
2017-Sep-10 04:51S 37°49' E 144°55'0 0.0
2017-Sep-10 04:03S 37°49' E 144°55'0 0.0
2017-Sep-10 03:42S 37°49' E 144°55'0 0.0
2017-Sep-10 03:24S 37°49' E 144°55'0 0.0
2017-Sep-10 01:57S 37°49' E 144°55'0 0.0
2017-Sep-09 23:45S 37°49' E 144°55'0 0.0
2017-Sep-09 23:21S 37°49' E 144°55'0 0.0
2017-Sep-09 22:51S 37°49' E 144°55'0 0.0
2017-Sep-09 22:30S 37°49' E 144°55'0 0.0
2017-Sep-09 22:00S 37°49' E 144°55'0 0.0
2017-Sep-09 18:57S 37°49' E 144°55'0 0.0
2017-Sep-09 18:30S 37°49' E 144°55'0 0.0
2017-Sep-09 17:57S 37°49' E 144°55'0 0.0
2017-Sep-09 17:26S 37°49' E 144°55'1 1.3
2017-Sep-09 17:00S 37°49' E 144°55'3 5.5
2017-Sep-09 16:25S 37°52' E 144°56'511.4
2017-Sep-09 16:00S 37°57' E 144°55'4 8.2
2017-Sep-09 15:30S 38°01' E 144°55'917.1
2017-Sep-09 14:57S 38°11' E 144°55'  

Dump ship's entire track history